Time;durP1;ratioP1;P1;durP2;ratioP2;P2;SDS_P1;SDS_P2;PMS_P1;PMS_P2;Temp;Humidity;BMP_temperature;BMP_pressure;BME280_temperature;BME280_humidity;BME280_pressure;Samples;Min_cycle;Max_cycle;Signal;HPM_P1;HPM_P2
2022/01/26 00:06:19;;;;;;;133.32;59.63;;;;;;;1.88;100.00;103330.00;5320851;28;20040;-85
2022/01/26 00:08:51;;;;;;;130.27;60.78;;;;;;;1.89;100.00;103319.44;5323593;27;20024;-85
2022/01/26 00:11:23;;;;;;;127.97;58.10;;;;;;;1.80;100.00;103313.44;5322812;27;20028;-85
2022/01/26 00:13:55;;;;;;;132.65;58.33;;;;;;;1.78;100.00;103308.22;5322950;27;20032;-85
2022/01/26 00:16:28;;;;;;;139.35;60.08;;;;;;;1.79;100.00;103322.22;5321503;27;20131;-85
2022/01/26 00:19:01;;;;;;;137.20;60.28;;;;;;;1.73;100.00;103317.94;5323386;27;20032;-85
2022/01/26 00:21:38;;;;;;;126.97;57.85;;;;;;;1.77;100.00;103322.28;5322298;27;20024;-85
2022/01/26 00:29:37;;;;;;;138.48;59.45;;;;;;;1.76;100.00;103302.13;5323701;27;20112;-85
2022/01/26 00:40:38;;;;;;;133.25;56.97;;;;;;;1.70;100.00;103307.47;5326549;27;20067;-85
2022/01/26 00:45:44;;;;;;;144.27;59.05;;;;;;;1.63;100.00;103305.81;5326073;27;20054;-85
2022/01/26 00:48:20;;;;;;;135.30;58.33;;;;;;;1.57;100.00;103304.16;5325518;27;20020;-85
2022/01/26 00:50:53;;;;;;;135.18;59.13;;;;;;;1.67;100.00;103307.53;5323046;28;20471;-85
2022/01/26 00:53:31;;;;;;;132.80;57.75;;;;;;;1.59;100.00;103302.38;5325707;27;20115;-85
2022/01/26 00:56:04;;;;;;;135.95;58.70;;;;;;;1.63;100.00;103304.09;5323443;27;20430;-85
2022/01/26 00:58:36;;;;;;;138.48;58.80;;;;;;;1.67;100.00;103307.53;5327449;27;20074;-84
2022/01/26 01:01:07;;;;;;;144.75;59.72;;;;;;;1.63;100.00;103308.44;5326409;27;20024;-85
2022/01/26 01:03:43;;;;;;;134.55;57.67;;;;;;;1.57;100.00;103298.91;5325188;28;20153;-85
2022/01/26 01:08:49;;;;;;;138.13;59.75;;;;;;;1.82;100.00;103298.50;5326012;27;20074;-86
2022/01/26 01:11:20;;;;;;;141.50;59.50;;;;;;;1.63;100.00;103293.56;5326622;27;20425;-86
2022/01/26 01:13:54;;;;;;;138.35;57.30;;;;;;;1.60;100.00;103295.38;5326494;27;20038;-85
2022/01/26 01:16:27;;;;;;;142.88;57.58;;;;;;;1.63;100.00;103304.09;5321793;28;20432;-86
2022/01/26 01:19:10;;;;;;;136.13;59.65;;;;;;;1.60;100.00;103292.75;5326720;27;20396;-86
2022/01/26 01:22:18;;;;;;;138.00;57.72;;;;;;;1.58;100.00;103287.50;5326870;27;20411;-86
2022/01/26 01:27:49;;;;;;;133.63;57.17;;;;;;;1.59;100.00;103283.97;5326824;28;20025;-86
2022/01/26 01:30:29;;;;;;;144.18;59.90;;;;;;;1.62;100.00;103285.69;5319729;28;20123;-86
2022/01/26 01:33:06;;;;;;;146.77;60.20;;;;;;;1.64;100.00;103276.00;5321551;27;20028;-86
2022/01/26 01:35:41;;;;;;;132.02;56.22;;;;;;;1.77;100.00;103276.66;5327246;27;20024;-86
2022/01/26 01:38:15;;;;;;;136.23;59.17;;;;;;;1.61;100.00;103276.03;5326032;27;20023;-86
2022/01/26 01:40:50;;;;;;;137.90;58.95;;;;;;;1.50;100.00;103261.28;5327321;27;20717;-85
2022/01/26 01:43:23;;;;;;;134.50;58.20;;;;;;;1.59;100.00;103264.69;5326349;27;20408;-86
2022/01/26 01:45:55;;;;;;;140.48;59.78;;;;;;;1.61;100.00;103269.00;5325479;27;20528;-85
2022/01/26 01:48:30;;;;;;;134.38;56.67;;;;;;;1.58;100.00;103270.81;5324484;27;20032;-86
2022/01/26 01:51:07;;;;;;;137.27;58.72;;;;;;;1.55;100.00;103269.13;5325489;27;20690;-86
2022/01/26 01:53:41;;;;;;;145.40;58.67;;;;;;;1.54;100.00;103264.75;5325643;28;20028;-86
2022/01/26 01:56:14;;;;;;;146.65;57.83;;;;;;;1.58;100.00;103276.09;5325057;27;20020;-85
2022/01/26 01:58:46;;;;;;;145.15;59.33;;;;;;;1.54;100.00;103275.25;5324956;27;20048;-85
2022/01/26 02:01:17;;;;;;;138.52;58.67;;;;;;;1.48;100.00;103257.81;5326290;27;20063;-86
2022/01/26 02:03:48;;;;;;;146.32;59.80;;;;;;;1.55;100.00;103253.34;5324865;28;20094;-86
2022/01/26 02:06:20;;;;;;;141.85;58.47;;;;;;;1.54;100.00;103266.50;5325720;27;20068;-86
2022/01/26 02:08:51;;;;;;;134.82;60.80;;;;;;;1.59;100.00;103265.53;5325875;27;20085;-85
2022/01/26 02:11:23;;;;;;;136.98;58.70;;;;;;;1.57;100.00;103258.59;5325676;27;20027;-86
2022/01/26 02:14:05;;;;;;;134.77;56.33;;;;;;;1.53;100.00;103251.66;5325822;27;20024;-86
2022/01/26 02:16:48;;;;;;;136.77;56.05;;;;;;;1.54;100.00;103256.84;5323336;28;20024;-85
2022/01/26 02:19:54;;;;;;;136.55;56.78;;;;;;;1.53;100.00;103235.84;5325875;27;20032;-85
2022/01/26 02:51:13;;;;;;;115.13;49.65;;;;;;;1.70;100.00;103224.16;5324395;27;20056;-85
2022/01/26 03:07:20;;;;;;;130.52;56.88;;;;;;;1.63;100.00;103200.59;5324580;27;20089;-86
2022/01/26 03:10:06;;;;;;;128.25;56.03;;;;;;;1.61;100.00;103200.59;5324716;27;20043;-85
2022/01/26 03:12:52;;;;;;;134.88;54.53;;;;;;;1.53;100.00;103180.63;5324503;28;20036;-85
2022/01/26 03:15:33;;;;;;;125.82;53.85;;;;;;;1.56;100.00;103186.69;5325268;27;20425;-85
2022/01/26 03:18:51;;;;;;;130.35;57.75;;;;;;;1.55;100.00;103187.56;5324482;27;20517;-85
2022/01/26 03:21:05;;;;;;;128.13;55.63;;;;;;;1.53;100.00;103185.88;5321481;28;20024;-85
2022/01/26 03:32:47;;;;;;;126.88;53.17;;;;;;;1.52;100.00;103198.13;5292498;27;20415;-85
2022/01/26 03:35:27;;;;;;;129.13;53.90;;;;;;;1.52;100.00;103203.41;5324432;28;20032;-85
2022/01/26 03:37:59;;;;;;;125.95;52.60;;;;;;;1.55;100.00;103207.75;5324327;27;20055;-85
2022/01/26 03:40:34;;;;;;;130.82;57.60;;;;;;;1.53;100.00;103199.03;5324900;27;20396;-86
2022/01/26 03:43:05;;;;;;;121.07;52.97;;;;;;;1.57;100.00;103193.66;5324240;27;20036;-85
2022/01/26 03:45:37;;;;;;;127.15;54.60;;;;;;;1.53;100.00;103196.41;5323492;27;20093;-85
2022/01/26 03:48:08;;;;;;;113.22;50.75;;;;;;;1.64;100.00;103195.28;5324388;27;20039;-85
2022/01/26 03:50:39;;;;;;;125.68;52.63;;;;;;;1.50;100.00;103187.63;5323128;28;20016;-84
2022/01/26 03:53:10;;;;;;;113.60;49.45;;;;;;;1.54;100.00;103170.03;5322238;28;40350;-85
2022/01/26 03:55:42;;;;;;;126.03;55.95;;;;;;;1.51;100.00;103173.59;5320159;28;20024;-85
2022/01/26 03:58:13;;;;;;;126.70;56.28;;;;;;;1.42;100.00;103175.50;5321200;27;20035;-86
2022/01/26 04:00:45;;;;;;;126.00;54.35;;;;;;;1.44;100.00;103190.41;5322982;27;20028;-85
2022/01/26 04:03:16;;;;;;;126.07;55.70;;;;;;;1.58;100.00;103199.78;5323955;27;20040;-85
2022/01/26 04:05:47;;;;;;;129.77;54.60;;;;;;;1.46;100.00;103198.25;5322924;27;20040;-86
2022/01/26 04:08:27;;;;;;;126.50;55.22;;;;;;;1.47;100.00;103194.72;5321908;27;20035;-85
2022/01/26 04:13:37;;;;;;;129.25;54.75;;;;;;;1.50;100.00;103192.03;5318449;27;20063;-86
2022/01/26 04:16:09;;;;;;;123.93;58.25;;;;;;;1.47;100.00;103189.47;5323930;27;20017;-86
2022/01/26 04:18:41;;;;;;;121.22;51.63;;;;;;;1.49;100.00;103182.41;5324162;27;20048;-86
2022/01/26 04:24:05;;;;;;;127.90;55.72;;;;;;;1.38;100.00;103187.84;5317902;28;20036;-86
2022/01/26 04:27:00;;;;;;;122.88;55.03;;;;;;;1.44;100.00;103187.75;5323172;27;20016;-86
2022/01/26 04:29:33;;;;;;;124.57;55.65;;;;;;;1.38;100.00;103187.00;5323436;27;20032;-86
2022/01/26 04:32:06;;;;;;;118.47;50.90;;;;;;;1.49;100.00;103198.19;5323920;27;20024;-86
2022/01/26 04:34:38;;;;;;;129.43;58.10;;;;;;;1.39;100.00;103192.22;5323748;27;20039;-86
2022/01/26 04:40:03;;;;;;;127.60;53.97;;;;;;;1.45;100.00;103191.25;5322566;27;20062;-85
2022/01/26 04:42:49;;;;;;;126.88;53.03;;;;;;;1.40;100.00;103214.13;5321558;28;20550;-86
2022/01/26 04:45:20;;;;;;;129.90;54.63;;;;;;;1.44;100.00;103213.22;5321045;28;20036;-85
2022/01/26 04:47:51;;;;;;;126.97;52.45;;;;;;;1.44;100.00;103226.34;5324325;27;20023;-86
2022/01/26 04:50:25;;;;;;;122.15;50.10;;;;;;;1.58;100.00;103228.72;5323574;27;20032;-85
2022/01/26 04:52:57;;;;;;;129.23;57.35;;;;;;;1.45;100.00;103236.81;5323174;27;20030;-86
2022/01/26 04:55:28;;;;;;;131.23;58.88;;;;;;;1.30;100.00;103218.69;5322712;28;20024;-85
2022/01/26 04:58:00;;;;;;;131.10;58.58;;;;;;;1.41;100.00;103222.00;5323568;27;20468;-86
2022/01/26 05:00:32;;;;;;;132.18;55.55;;;;;;;1.32;100.00;103217.75;5326284;28;20063;-85
2022/01/26 05:03:03;;;;;;;129.40;53.45;;;;;;;1.34;100.00;103220.38;5340434;27;20388;-85
2022/01/26 05:05:34;;;;;;;129.10;54.13;;;;;;;1.31;100.00;103208.16;5343858;27;20055;-86
2022/01/26 05:08:06;;;;;;;129.02;54.33;;;;;;;1.38;100.00;103211.53;5344133;27;20020;-85
2022/01/26 05:10:41;;;;;;;123.38;51.72;;;;;;;1.34;100.00;103209.84;5337568;27;22762;-85
2022/01/26 05:13:15;;;;;;;127.60;54.67;;;;;;;1.33;100.00;103210.72;5337523;27;20016;-85
2022/01/26 05:15:46;;;;;;;126.97;54.25;;;;;;;1.27;100.00;103213.47;5323791;27;20154;-85
2022/01/26 05:18:18;;;;;;;138.27;57.53;;;;;;;1.38;100.00;103215.91;5323583;28;20016;-86
2022/01/26 05:20:49;;;;;;;126.82;54.38;;;;;;;1.30;100.00;103211.66;5325257;27;20022;-85
2022/01/26 05:23:20;;;;;;;134.73;61.33;;;;;;;1.22;100.00;103189.84;5324629;27;20028;-86
2022/01/26 05:25:52;;;;;;;123.13;52.35;;;;;;;1.25;100.00;103178.44;5327576;28;20032;-85
2022/01/26 05:28:23;;;;;;;133.88;56.05;;;;;;;1.30;100.00;103181.88;5323801;27;20036;-85
2022/01/26 05:30:54;;;;;;;134.05;56.92;;;;;;;1.34;100.00;103170.41;5325697;27;20028;-85
2022/01/26 05:33:26;;;;;;;127.63;53.00;;;;;;;1.32;100.00;103175.69;5327235;27;20024;-85
2022/01/26 05:35:57;;;;;;;118.63;49.38;;;;;;;1.30;100.00;103172.22;5325586;27;20031;-85
2022/01/26 05:38:29;;;;;;;131.07;54.70;;;;;;;1.27;100.00;103160.88;5326366;27;20047;-86
2022/01/26 05:41:02;;;;;;;131.10;55.17;;;;;;;1.31;100.00;103175.69;5326873;27;20027;-85
2022/01/26 05:43:34;;;;;;;132.90;55.67;;;;;;;1.34;100.00;103185.31;5325834;27;20028;-86
2022/01/26 05:46:11;;;;;;;129.73;54.85;;;;;;;1.42;100.00;103184.28;5324688;27;20396;-85
2022/01/26 05:48:45;;;;;;;136.73;58.35;;;;;;;1.31;100.00;103180.97;5326059;27;20020;-85
2022/01/26 05:51:16;;;;;;;130.27;55.58;;;;;;;1.31;100.00;103159.91;5325755;27;20047;-86
2022/01/26 05:53:48;;;;;;;132.38;54.45;;;;;;;1.39;100.00;103180.84;5321062;27;20393;-85
2022/01/26 05:56:19;;;;;;;134.75;57.25;;;;;;;1.38;100.00;103173.84;5321520;27;20478;-86
2022/01/26 05:58:50;;;;;;;134.02;54.60;;;;;;;1.39;100.00;103167.69;5322115;27;20070;-85
2022/01/26 06:01:22;;;;;;;128.05;53.78;;;;;;;1.41;100.00;103174.66;5323026;27;20406;-85
2022/01/26 06:03:53;;;;;;;134.18;55.85;;;;;;;1.39;100.00;103165.06;5323825;28;20043;-84
2022/01/26 06:06:25;;;;;;;136.40;57.65;;;;;;;1.37;100.00;103156.31;5322193;27;20423;-84
2022/01/26 06:08:56;;;;;;;139.10;60.10;;;;;;;1.38;100.00;103160.69;5320498;28;20109;-87
2022/01/26 06:11:30;;;;;;;134.80;56.63;;;;;;;1.43;100.00;103174.63;5321009;27;20059;-83
2022/01/26 06:14:02;;;;;;;131.32;56.05;;;;;;;1.39;100.00;103162.44;5317998;27;20154;-84
2022/01/26 06:16:33;;;;;;;133.88;55.10;;;;;;;1.46;100.00;103166.69;5326081;27;20028;-86
2022/01/26 06:19:04;;;;;;;131.18;56.85;;;;;;;1.46;100.00;103179.84;5320142;27;20027;-85
2022/01/26 06:21:36;;;;;;;136.30;58.25;;;;;;;1.44;100.00;103190.41;5322686;28;20031;-85
2022/01/26 06:24:07;;;;;;;135.27;56.03;;;;;;;1.48;100.00;103185.94;5318430;27;20089;-86
2022/01/26 06:26:40;;;;;;;135.25;58.42;;;;;;;1.44;100.00;103182.50;5323037;28;20456;-86
2022/01/26 06:29:12;;;;;;;136.95;54.58;;;;;;;1.50;100.00;103171.84;5325757;27;20020;-85
2022/01/26 06:31:44;;;;;;;131.68;59.38;;;;;;;1.41;100.00;103165.91;5322679;27;20031;-85
2022/01/26 06:34:16;;;;;;;136.98;61.17;;;;;;;1.47;100.00;103173.69;5324149;27;20082;-85
2022/01/26 06:36:47;;;;;;;137.93;59.78;;;;;;;1.45;100.00;103160.53;5325732;27;20431;-85
2022/01/26 06:39:19;;;;;;;138.90;56.92;;;;;;;1.29;100.00;103132.78;5326373;27;20032;-85
2022/01/26 06:41:54;;;;;;;140.60;59.58;;;;;;;1.42;100.00;103170.25;5326756;27;20062;-85
2022/01/26 06:44:31;;;;;;;137.98;56.97;;;;;;;1.38;100.00;103165.94;5326341;27;20036;-85
2022/01/26 06:49:36;;;;;;;131.23;54.95;;;;;;;1.59;100.00;103191.03;5334565;28;19946;-85
2022/01/26 06:52:07;;;;;;;134.45;57.20;;;;;;;1.50;100.00;103177.13;5337117;27;20020;-84
2022/01/26 06:54:39;;;;;;;132.93;54.53;;;;;;;1.54;100.00;103187.59;5332242;27;20053;-85
2022/01/26 06:57:10;;;;;;;137.43;56.58;;;;;;;1.51;100.00;103194.66;5337468;27;20016;-85
2022/01/26 06:59:42;;;;;;;136.55;57.25;;;;;;;1.55;100.00;103182.31;5333590;27;20101;-85
2022/01/26 07:02:13;;;;;;;141.45;58.30;;;;;;;1.53;100.00;103173.59;5329068;27;20436;-85
2022/01/26 07:04:45;;;;;;;148.32;66.63;;;;;;;1.57;100.00;103177.88;5326312;28;20044;-84
2022/01/26 07:07:16;;;;;;;144.93;60.20;;;;;;;1.60;100.00;103171.72;5326854;28;20073;-85
2022/01/26 07:09:47;;;;;;;145.98;58.45;;;;;;;1.57;100.00;103171.78;5326040;27;20360;-85
2022/01/26 07:12:22;;;;;;;146.18;58.95;;;;;;;1.56;100.00;103168.28;5328090;28;20044;-85
2022/01/26 07:23:10;;;;;;;142.20;60.17;;;;;;;1.50;100.00;103190.28;5332204;27;20028;-85
2022/01/26 07:25:41;;;;;;;153.48;65.80;;;;;;;1.52;100.00;103187.63;5333041;27;20036;-84
2022/01/26 07:28:12;;;;;;;145.02;60.88;;;;;;;1.63;100.00;103216.38;5330348;27;20364;-85
2022/01/26 07:30:44;;;;;;;149.95;62.58;;;;;;;1.66;100.00;103218.94;5323371;28;20633;-84
2022/01/26 07:33:15;;;;;;;145.88;59.45;;;;;;;1.46;100.00;103183.34;5323356;27;20460;-85
2022/01/26 07:35:49;;;;;;;151.05;60.30;;;;;;;1.45;100.00;103186.00;5322957;27;20141;-84
2022/01/26 07:38:20;;;;;;;148.70;57.75;;;;;;;1.51;100.00;103196.44;5323913;27;20036;-84
2022/01/26 07:40:53;;;;;;;156.07;60.72;;;;;;;1.44;100.00;103177.25;5324804;27;20330;-84
2022/01/26 07:43:25;;;;;;;161.75;60.65;;;;;;;1.54;100.00;103200.75;5314884;27;20146;-85
2022/01/26 07:45:56;;;;;;;166.18;66.28;;;;;;;1.53;100.00;103196.41;5317950;27;20023;-84
2022/01/26 07:48:27;;;;;;;160.38;60.13;;;;;;;1.57;100.00;103201.56;5323956;27;20134;-84
2022/01/26 07:50:59;;;;;;;164.88;64.43;;;;;;;1.50;100.00;103190.28;5324604;28;20020;-84
2022/01/26 07:53:31;;;;;;;172.68;67.72;;;;;;;1.58;100.00;103197.16;5321425;28;20025;-84
2022/01/26 07:56:03;;;;;;;156.95;61.28;;;;;;;1.53;100.00;103181.47;5303432;28;20056;-84
2022/01/26 07:58:34;;;;;;;155.75;58.38;;;;;;;1.57;100.00;103196.31;5304197;28;20101;-84
2022/01/26 08:01:06;;;;;;;162.48;60.53;;;;;;;1.60;100.00;103203.28;5303809;28;20424;-84
2022/01/26 08:03:37;;;;;;;167.13;66.40;;;;;;;1.56;100.00;103213.00;5320180;28;20377;-84
2022/01/26 08:06:14;;;;;;;157.60;58.30;;;;;;;1.56;100.00;103231.41;5316649;27;20040;-85
2022/01/26 08:08:45;;;;;;;;;;;;;;;1.73;100.00;103239.00;5322313;28;20028;-85
2022/01/26 08:11:16;;;;;;;157.25;58.10;;;;;;;1.59;100.00;103233.97;5317507;28;20369;-84
2022/01/26 08:13:48;;;;;;;161.90;62.35;;;;;;;1.61;100.00;103226.91;5323801;28;20024;-84
2022/01/26 08:16:19;;;;;;;170.70;64.32;;;;;;;1.63;100.00;103230.41;5323368;28;20039;-84
2022/01/26 08:18:50;;;;;;;159.55;59.15;;;;;;;1.59;100.00;103228.72;5324328;27;20052;-84
2022/01/26 08:21:22;;;;;;;155.10;57.78;;;;;;;1.58;100.00;103232.25;5324415;27;20024;-84
2022/01/26 08:24:01;;;;;;;164.65;61.05;;;;;;;1.61;100.00;103228.69;5323483;27;20035;-85
2022/01/26 08:26:41;;;;;;;164.27;58.80;;;;;;;1.60;100.00;103229.59;5324794;27;20012;-84
2022/01/26 08:29:21;;;;;;;171.07;62.67;;;;;;;1.71;100.00;103232.91;5324455;27;20046;-84
2022/01/26 08:31:52;;;;;;;158.63;57.88;;;;;;;1.66;100.00;103224.22;5324700;27;20405;-85
2022/01/26 08:34:24;;;;;;;172.02;64.68;;;;;;;1.65;100.00;103227.75;5325359;27;20027;-85
2022/01/26 08:36:55;;;;;;;164.73;61.03;;;;;;;1.63;100.00;103219.00;5323966;27;20405;-84
2022/01/26 08:39:27;;;;;;;172.07;62.15;;;;;;;1.67;100.00;103229.44;5323215;28;20013;-84
2022/01/26 08:41:59;;;;;;;163.90;59.47;;;;;;;1.69;100.00;103230.28;5312310;28;20036;-85
2022/01/26 08:44:31;;;;;;;157.90;57.13;;;;;;;1.67;100.00;103216.31;5318586;28;20508;-85
2022/01/26 08:47:04;;;;;;;163.40;57.45;;;;;;;1.70;100.00;103228.53;5330281;27;20035;-84
2022/01/26 08:49:35;;;;;;;153.25;54.35;;;;;;;1.73;100.00;103246.03;5335928;27;20340;-85
2022/01/26 08:52:07;;;;;;;156.48;57.55;;;;;;;1.79;100.00;103230.13;5323813;27;20837;-84
2022/01/26 08:54:38;;;;;;;165.88;58.67;;;;;;;1.70;100.00;103232.03;5325387;27;20025;-85
2022/01/26 08:57:09;;;;;;;162.57;56.92;;;;;;;1.72;100.00;103241.66;5326852;28;20035;-85
2022/01/26 08:59:41;;;;;;;149.88;53.00;;;;;;;1.75;100.00;103231.09;5326967;28;20100;-85
2022/01/26 09:02:12;;;;;;;148.65;56.50;;;;;;;1.78;100.00;103244.19;5327181;27;20043;-85
2022/01/26 09:04:43;;;;;;;144.65;55.20;;;;;;;1.78;100.00;103236.31;5327028;27;20167;-85
2022/01/26 09:07:16;;;;;;;154.85;59.65;;;;;;;1.87;100.00;103238.75;5327592;27;20081;-85
2022/01/26 09:09:47;;;;;;;136.82;54.40;;;;;;;1.87;100.00;103229.09;5327925;27;20028;-85
2022/01/26 09:12:19;;;;;;;134.32;56.75;;;;;;;1.93;100.00;103225.50;5327629;27;20032;-85
2022/01/26 09:14:52;;;;;;;142.10;54.58;;;;;;;1.90;100.00;103230.81;5328482;27;20093;-85
2022/01/26 09:17:27;;;;;;;134.98;59.45;;;;;;;1.88;100.00;103224.72;5325645;28;20042;-85
2022/01/26 09:20:00;;;;;;;131.68;53.63;;;;;;;1.96;100.00;103235.09;5327460;27;20028;-86
2022/01/26 09:22:32;;;;;;;126.47;51.25;;;;;;;2.03;100.00;103249.88;5327970;27;20017;-85
2022/01/26 09:25:03;;;;;;;136.52;54.75;;;;;;;1.95;100.00;103243.91;5327408;27;20032;-86
2022/01/26 09:27:36;;;;;;;128.95;52.47;;;;;;;2.03;100.00;103239.34;5327824;27;20046;-86
2022/01/26 09:30:08;;;;;;;136.98;57.25;;;;;;;1.97;100.00;103248.22;5327809;27;20024;-84
2022/01/26 09:32:39;;;;;;;128.05;53.85;;;;;;;2.05;100.00;103241.06;5327147;28;20020;-84
2022/01/26 09:35:11;;;;;;;130.20;54.60;;;;;;;2.10;100.00;103251.50;5307270;27;20017;-85
2022/01/26 09:37:43;;;;;;;136.20;55.72;;;;;;;2.13;100.00;103255.84;5306123;28;20384;-85
2022/01/26 09:40:14;;;;;;;126.03;53.38;;;;;;;2.07;100.00;103241.91;5305633;28;20469;-84
2022/01/26 09:42:46;;;;;;;129.23;54.42;;;;;;;2.12;100.00;103233.91;5313604;28;20028;-84
2022/01/26 09:45:18;;;;;;;131.75;56.22;;;;;;;2.15;100.00;103233.84;5327010;27;20031;-84
2022/01/26 09:47:49;;;;;;;130.13;57.75;;;;;;;2.18;100.00;103222.41;5327252;27;20380;-84
2022/01/26 09:50:21;;;;;;;128.45;56.67;;;;;;;2.19;100.00;103221.50;5311963;28;20082;-84
2022/01/26 09:52:54;;;;;;;115.18;53.20;;;;;;;2.31;100.00;103218.63;5322968;27;20086;-84
2022/01/26 09:55:26;;;;;;;113.82;49.72;;;;;;;2.29;100.00;103215.16;5313859;28;20380;-84
2022/01/26 09:57:58;;;;;;;114.25;48.88;;;;;;;2.44;100.00;103203.44;5305637;28;20020;-84
2022/01/26 10:00:29;;;;;;;104.18;48.67;;;;;;;2.39;100.00;103210.56;5304075;28;20024;-84
2022/01/26 10:03:04;;;;;;;106.05;52.63;;;;;;;2.39;100.00;103221.13;5318248;28;20016;-84
2022/01/26 10:05:45;;;;;;;110.10;49.65;;;;;;;2.46;100.00;103220.09;5324061;27;20068;-85
2022/01/26 10:19:32;;;;;;;92.65;46.15;;;;;;;2.53;100.00;103220.84;5325523;27;20035;-84
2022/01/26 10:22:03;;;;;;;86.35;42.72;;;;;;;2.50;100.00;103205.06;5325993;27;20018;-84
2022/01/26 10:24:35;;;;;;;93.38;46.03;;;;;;;2.52;100.00;103214.66;5324901;28;20028;-84
2022/01/26 10:27:06;;;;;;;90.38;45.45;;;;;;;2.55;100.00;103205.84;5326618;27;20024;-85
2022/01/26 10:29:37;;;;;;;90.00;47.30;;;;;;;2.46;100.00;103186.69;5326544;27;20024;-84
2022/01/26 10:32:12;;;;;;;93.80;43.95;;;;;;;2.65;100.00;103195.06;5324121;28;20160;-84
2022/01/26 10:34:44;;;;;;;95.45;45.90;;;;;;;2.58;100.00;103204.00;5325001;28;20014;-84
2022/01/26 10:37:20;;;;;;;87.95;42.88;;;;;;;2.57;100.00;103206.69;5326018;27;20035;-85
2022/01/26 10:39:53;;;;;;;98.35;48.78;;;;;;;2.52;100.00;103211.19;5325840;27;20020;-85
2022/01/26 10:42:25;;;;;;;89.53;44.28;;;;;;;2.59;100.00;103234.72;5326096;27;20036;-85
2022/01/26 10:45:13;;;;;;;95.05;44.13;;;;;;;2.61;100.00;103251.41;5325030;27;20039;-84
2022/01/26 10:47:47;;;;;;;78.45;39.45;;;;;;;2.71;100.00;103264.38;5326249;27;20020;-85
2022/01/26 10:50:44;;;;;;;91.38;43.13;;;;;;;2.65;100.00;103276.78;5324974;28;20024;-84
2022/01/26 10:53:17;;;;;;;97.07;43.88;;;;;;;2.60;100.00;103259.31;5325346;28;20028;-84
2022/01/26 10:55:48;;;;;;;84.75;42.92;;;;;;;2.57;100.00;103247.06;5325918;27;20027;-85
2022/01/26 10:58:21;;;;;;;89.78;45.13;;;;;;;2.59;100.00;103257.56;5326409;28;20020;-84
2022/01/26 11:00:54;;;;;;;93.00;43.53;;;;;;;2.57;100.00;103248.84;5325939;27;20149;-84
2022/01/26 11:03:26;;;;;;;96.43;47.30;;;;;;;2.60;100.00;103236.47;5308478;27;20346;-84
2022/01/26 11:05:57;;;;;;;96.22;45.97;;;;;;;2.69;100.00;103239.81;5315476;28;20033;-84
2022/01/26 11:08:30;;;;;;;96.80;45.97;;;;;;;2.66;100.00;103235.47;5304663;28;20040;-85
2022/01/26 11:11:02;;;;;;;94.10;46.63;;;;;;;2.58;100.00;103229.50;5315678;27;20039;-84
2022/01/26 11:13:39;;;;;;;92.43;48.75;;;;;;;2.58;100.00;103235.63;5324278;28;20088;-84
2022/01/26 11:16:11;;;;;;;;;;;;;;;2.75;100.00;103232.66;5322483;28;20066;-84
2022/01/26 11:18:54;;;;;;;101.25;44.40;;;;;;;2.75;100.00;103229.13;5321969;27;19916;-85
2022/01/26 11:21:35;;;;;;;97.95;45.42;;;;;;;2.74;100.00;103232.69;5324464;27;20047;-85
2022/01/26 11:24:08;;;;;;;106.07;49.90;;;;;;;2.67;100.00;103228.44;5321926;28;20039;-84
2022/01/26 11:26:42;;;;;;;93.35;47.42;;;;;;;2.69;100.00;103224.00;5324221;27;20081;-84
2022/01/26 11:29:25;;;;;;;95.95;45.05;;;;;;;2.75;100.00;103223.84;5322030;27;20020;-85
2022/01/26 11:32:02;;;;;;;94.90;44.13;;;;;;;2.78;100.00;103224.66;5322829;27;20028;-84
2022/01/26 11:34:35;;;;;;;88.80;41.63;;;;;;;2.80;100.00;103214.09;5324184;27;20016;-84
2022/01/26 11:37:08;;;;;;;103.03;50.35;;;;;;;2.81;100.00;103215.84;5324247;27;20027;-85
2022/01/26 11:45:12;;;;;;;88.45;45.05;;;;;;;2.86;100.00;103189.34;5322703;27;20047;-84
2022/01/26 11:48:10;;;;;;;90.28;43.50;;;;;;;2.95;100.00;103195.28;5320124;28;20012;-84
2022/01/26 11:50:48;;;;;;;94.00;45.22;;;;;;;2.87;100.00;103188.47;5331658;27;20357;-85
2022/01/26 11:53:24;;;;;;;97.65;48.45;;;;;;;2.87;100.00;103181.41;5323856;27;20488;-85
2022/01/26 11:56:07;;;;;;;101.57;53.33;;;;;;;2.89;100.00;103186.66;5323447;27;20028;-85
2022/01/26 11:58:42;;;;;;;94.43;46.78;;;;;;;2.92;100.00;103190.06;5323946;27;20024;-85
2022/01/26 12:04:02;;;;;;;95.03;43.40;;;;;;;3.17;100.00;103176.31;5322985;27;20040;-85
2022/01/26 12:06:37;;;;;;;100.55;47.42;;;;;;;3.05;100.00;103185.41;5320989;28;20086;-85
2022/01/26 12:09:10;;;;;;;97.53;45.05;;;;;;;3.08;100.00;103184.44;5324153;28;20415;-85
2022/01/26 12:11:42;;;;;;;91.22;42.00;;;;;;;3.13;100.00;103180.78;5322043;27;20025;-85
2022/01/26 12:14:19;;;;;;;95.18;44.92;;;;;;;3.14;100.00;103165.88;5324061;27;20081;-85
2022/01/26 12:16:53;;;;;;;93.20;49.15;;;;;;;3.10;100.00;103172.94;5322569;27;20020;-85
2022/01/26 12:19:33;;;;;;;91.38;45.38;;;;;;;3.10;100.00;103182.63;5324620;27;20034;-86
2022/01/26 12:37:00;;;;;;;91.43;49.20;;;;;;;3.16;100.00;103185.16;5321555;28;20483;-87
2022/01/26 12:42:38;;;;;;;88.90;42.85;;;;;;;3.16;100.00;103175.44;5322987;28;20040;-86
2022/01/26 12:45:11;;;;;;;83.88;42.47;;;;;;;3.22;100.00;103172.66;5322883;27;20441;-84
2022/01/26 12:47:43;;;;;;;79.10;41.42;;;;;;;3.29;100.00;103173.38;5322575;27;20756;-84
2022/01/26 12:50:15;;;;;;;83.13;41.75;;;;;;;3.18;100.00;103175.41;5322736;27;20028;-84
2022/01/26 12:52:48;;;;;;;92.93;45.85;;;;;;;3.22;100.00;103162.09;5323141;27;20031;-84
2022/01/26 12:55:28;;;;;;;85.65;43.58;;;;;;;3.34;100.00;103182.03;5323032;27;20030;-84
2022/01/26 12:58:00;;;;;;;84.03;43.22;;;;;;;3.36;100.00;103180.22;5320484;28;20074;-84
2022/01/26 13:00:42;;;;;;;84.40;42.88;;;;;;;3.39;100.00;103180.16;5323097;27;20542;-85
2022/01/26 13:03:15;;;;;;;77.80;40.80;;;;;;;3.44;100.00;103177.41;5323061;27;20039;-84
2022/01/26 13:05:46;;;;;;;79.55;41.95;;;;;;;3.44;100.00;103177.41;5322846;27;20151;-84
2022/01/26 13:08:18;;;;;;;82.95;44.47;;;;;;;3.39;100.00;103174.03;5322387;27;20085;-84
2022/01/26 13:10:49;;;;;;;84.07;42.65;;;;;;;3.35;100.00;103153.91;5323607;27;20471;-84
2022/01/26 13:13:22;;;;;;;83.85;42.05;;;;;;;3.31;100.00;103142.53;5323063;27;20029;-84
2022/01/26 13:16:14;;;;;;;84.22;45.13;;;;;;;3.26;100.00;103136.53;5322600;27;20036;-84
2022/01/26 13:27:38;;;;;;;80.10;40.58;;;;;;;3.46;100.00;103149.22;5320375;28;20043;-83
2022/01/26 13:33:09;;;;;;;78.20;42.50;;;;;;;3.47;100.00;103142.16;5322077;27;20035;-84
2022/01/26 13:44:30;;;;;;;74.88;40.05;;;;;;;3.63;100.00;103143.50;5325626;27;20038;-85
2022/01/26 14:00:41;;;;;;;78.90;44.17;;;;;;;3.45;100.00;103118.44;5324594;27;20032;-84
2022/01/26 14:03:16;;;;;;;87.00;48.63;;;;;;;3.44;100.00;103116.72;5320945;28;20028;-84
2022/01/26 14:05:48;;;;;;;80.53;43.28;;;;;;;3.48;100.00;103113.09;5323745;27;20037;-84
2022/01/26 14:08:19;;;;;;;79.38;44.92;;;;;;;3.45;100.00;103125.50;5326105;27;20093;-83
2022/01/26 14:10:51;;;;;;;79.47;43.10;;;;;;;3.45;100.00;103113.16;5325351;27;20102;-84
2022/01/26 14:13:25;;;;;;;84.40;47.75;;;;;;;3.31;100.00;103096.84;5324838;28;20067;-85
2022/01/26 14:15:58;;;;;;;81.00;45.05;;;;;;;3.37;100.00;103099.31;5322573;27;20089;-84
2022/01/26 14:19:00;;;;;;;86.35;41.38;;;;;;;3.41;100.00;103101.81;5326466;27;20026;-84
2022/01/26 14:21:44;;;;;;;82.68;42.70;;;;;;;3.45;100.00;103105.25;5325957;27;20020;-84
2022/01/26 14:26:54;;;;;;;79.75;43.50;;;;;;;3.51;100.00;103106.88;5325497;27;20249;-84